Mary Meyer, Vermont
Current Conditions -  °F | °C
As of 10:54 PM on Friday 24 Oct 2014 (Local Time) from KVSF Reporting Station
Overcast Overcast  
Wind Chill: 44°   Ceiling: 4800
Heat Index: 47°   Visibility: 10mi
Dew Point: 39°   Wind: 6mph
Humidity: 74%   Direction: 320°NW
Pressure: 29.8"   Gusts: NA
Location:  43.0642°N, 72.6668°W
Report Text: KVSF 250254Z AUTO 32005KT 10SM BKN048 OVC055 08/04 A2980 RMK AO2 SLP094 T00830039 50002
Loading
Personal Weather Stations






























Interactive Weather Map
Tropical Storm Tracking
New forecast layout! Learn more

10-Day Weather Forecast

Advertisements
Track Severe Weather on mobile